Time;durP1;ratioP1;P1;durP2;ratioP2;P2;SDS_P1;SDS_P2;PMS_P1;PMS_P2;Temp;Humidity;BMP_temperature;BMP_pressure;BME280_temperature;BME280_humidity;BME280_pressure;Samples;Min_cycle;Max_cycle;Signal;HPM_P1;HPM_P2
2022/11/10 00:00:28;;;;;;;9.88;3.70;;;;;;;;;;5090448;28;20203;-56
2022/11/10 00:02:53;;;;;;;13.27;3.92;;;;;;;;;;5079871;28;20035;-56
2022/11/10 00:05:19;;;;;;;12.10;4.10;;;;;;;;;;5076071;28;20064;-57
2022/11/10 00:07:44;;;;;;;13.23;4.18;;;;;;;;;;5071820;28;20454;-57
2022/11/10 00:10:09;;;;;;;13.45;3.55;;;;;;;;;;5072882;28;20082;-57
2022/11/10 00:12:35;;;;;;;15.73;3.85;;;;;;;;;;5088662;28;20093;-57
2022/11/10 00:17:44;;;;;;;13.40;4.00;;;;;;;;;;5081006;28;20030;-57
2022/11/10 00:20:11;;;;;;;16.98;4.30;;;;;;;;;;5074724;28;20052;-57
2022/11/10 00:22:37;;;;;;;13.50;3.45;;;;;;;;;;5082108;28;20107;-56
2022/11/10 00:25:02;;;;;;;14.73;4.38;;;;;;;;;;5082784;28;20019;-56
2022/11/10 00:27:27;;;;;;;12.32;3.83;;;;;;;;;;5082051;28;20032;-57
2022/11/10 00:29:52;;;;;;;16.95;4.35;;;;;;;;;;5080059;28;20024;-56
2022/11/10 00:32:18;;;;;;;13.57;4.18;;;;;;;;;;5080505;28;20121;-56
2022/11/10 00:34:43;;;;;;;14.75;4.75;;;;;;;;;;5115519;27;20024;-58
2022/11/10 00:37:08;;;;;;;15.98;4.38;;;;;;;;;;5078122;28;20036;-57
2022/11/10 00:39:33;;;;;;;11.40;4.05;;;;;;;;;;5077870;28;20102;-56
2022/11/10 00:41:59;;;;;;;15.77;4.03;;;;;;;;;;5080145;28;20047;-57
2022/11/10 00:44:24;;;;;;;11.88;3.40;;;;;;;;;;5076641;28;20055;-56
2022/11/10 00:46:49;;;;;;;9.38;3.63;;;;;;;;;;5085990;28;20055;-56
2022/11/10 00:49:14;;;;;;;15.90;4.22;;;;;;;;;;5067452;28;20097;-54
2022/11/10 00:51:40;;;;;;;12.45;3.95;;;;;;;;;;5072873;28;20117;-56
2022/11/10 00:54:05;;;;;;;12.48;3.95;;;;;;;;;;5076875;28;20020;-57
2022/11/10 00:56:30;;;;;;;10.30;3.63;;;;;;;;;;5078947;28;20408;-56
2022/11/10 00:58:55;;;;;;;17.67;4.38;;;;;;;;;;5081363;28;20020;-56
2022/11/10 01:01:25;;;;;;;19.42;4.22;;;;;;;;;;5077774;28;20012;-56
2022/11/10 01:03:50;;;;;;;8.52;3.28;;;;;;;;;;5073878;28;20192;-55
2022/11/10 01:06:16;;;;;;;9.85;3.80;;;;;;;;;;5087708;28;20074;-55
2022/11/10 01:08:41;;;;;;;15.93;4.28;;;;;;;;;;5078901;28;20019;-56
2022/11/10 01:11:14;;;;;;;16.33;3.97;;;;;;;;;;5089226;28;20020;-56
2022/11/10 01:13:39;;;;;;;15.30;4.75;;;;;;;;;;5085111;28;20384;-56
2022/11/10 01:16:04;;;;;;;10.30;3.63;;;;;;;;;;5078742;28;20475;-56
2022/11/10 01:18:29;;;;;;;11.80;4.25;;;;;;;;;;5074111;28;20523;-55
2022/11/10 01:20:55;;;;;;;14.13;3.92;;;;;;;;;;5069911;28;20024;-56
2022/11/10 01:23:20;;;;;;;10.77;3.95;;;;;;;;;;5081679;28;20024;-56
2022/11/10 01:25:45;;;;;;;17.38;4.97;;;;;;;;;;5082019;28;20024;-56
2022/11/10 01:28:10;;;;;;;16.42;5.30;;;;;;;;;;5078548;28;20023;-56
2022/11/10 01:30:36;;;;;;;16.55;5.40;;;;;;;;;;5085625;28;20028;-56
2022/11/10 01:33:01;;;;;;;15.68;5.25;;;;;;;;;;5083422;28;20042;-56
2022/11/10 01:35:26;;;;;;;16.30;5.00;;;;;;;;;;5075147;28;20013;-56
2022/11/10 01:37:52;;;;;;;17.33;5.53;;;;;;;;;;5080774;28;20023;-56
2022/11/10 01:40:17;;;;;;;14.05;5.25;;;;;;;;;;5073384;28;20238;-56
2022/11/10 01:42:45;;;;;;;15.35;5.30;;;;;;;;;;5073826;28;20028;-56
2022/11/10 01:45:33;;;;;;;19.45;5.60;;;;;;;;;;5077011;28;20032;-56
2022/11/10 01:48:00;;;;;;;12.77;5.57;;;;;;;;;;5072010;28;20028;-56
2022/11/10 01:50:26;;;;;;;14.48;5.15;;;;;;;;;;5100836;27;20027;-55
2022/11/10 01:52:52;;;;;;;14.68;6.28;;;;;;;;;;5079499;28;20027;-55
2022/11/10 01:55:17;;;;;;;12.75;6.47;;;;;;;;;;5070041;28;20056;-56
2022/11/10 01:57:43;;;;;;;17.45;6.35;;;;;;;;;;5072358;28;20064;-56
2022/11/10 02:00:08;;;;;;;20.02;6.82;;;;;;;;;;5082037;28;20032;-55
2022/11/10 02:02:35;;;;;;;16.73;7.15;;;;;;;;;;5082215;28;20063;-55
2022/11/10 02:05:00;;;;;;;13.50;6.57;;;;;;;;;;5072556;28;20475;-56
2022/11/10 02:07:25;;;;;;;14.80;6.38;;;;;;;;;;5072732;28;20114;-58
2022/11/10 02:09:51;;;;;;;14.68;5.43;;;;;;;;;;5083528;28;20443;-55
2022/11/10 02:12:35;;;;;;;18.13;7.72;;;;;;;;;;5075582;28;20064;-56
2022/11/10 02:15:01;;;;;;;18.35;7.00;;;;;;;;;;5085573;28;20015;-56
2022/11/10 02:17:26;;;;;;;12.27;6.03;;;;;;;;;;5076892;28;20020;-56
2022/11/10 02:19:51;;;;;;;14.60;6.40;;;;;;;;;;5080796;28;20024;-55
2022/11/10 02:22:16;;;;;;;23.45;7.78;;;;;;;;;;5078775;28;20509;-57
2022/11/10 02:24:42;;;;;;;14.05;6.93;;;;;;;;;;5065080;28;20105;-57
2022/11/10 02:27:07;;;;;;;19.98;7.03;;;;;;;;;;5072892;28;20121;-57
2022/11/10 02:29:32;;;;;;;15.80;6.93;;;;;;;;;;5079683;28;20047;-56
2022/11/10 02:31:57;;;;;;;17.85;6.72;;;;;;;;;;5083991;28;20024;-57
2022/11/10 02:34:22;;;;;;;16.20;7.22;;;;;;;;;;5086383;28;20024;-56
2022/11/10 02:36:48;;;;;;;15.27;7.40;;;;;;;;;;5082096;28;20383;-56
2022/11/10 02:39:13;;;;;;;18.70;7.13;;;;;;;;;;5077590;28;20024;-56
2022/11/10 02:41:38;;;;;;;15.13;7.18;;;;;;;;;;5084904;28;20089;-55
2022/11/10 02:44:03;;;;;;;18.73;7.28;;;;;;;;;;5082658;28;20027;-57
2022/11/10 02:46:29;;;;;;;16.65;8.32;;;;;;;;;;5075396;28;20024;-56
2022/11/10 02:48:54;;;;;;;18.05;8.35;;;;;;;;;;5085411;28;20032;-57
2022/11/10 02:51:19;;;;;;;11.48;5.07;;;;;;;;;;5076698;28;20651;-55
2022/11/10 02:53:44;;;;;;;24.67;9.32;;;;;;;;;;5088717;28;20024;-56
2022/11/10 02:56:10;;;;;;;18.85;8.00;;;;;;;;;;5087588;28;20016;-57
2022/11/10 02:58:35;;;;;;;18.70;7.68;;;;;;;;;;5076089;28;20032;-56
2022/11/10 03:01:02;;;;;;;20.38;8.30;;;;;;;;;;5084118;28;20367;-56
2022/11/10 03:03:28;;;;;;;19.60;8.48;;;;;;;;;;5090917;28;20028;-57
2022/11/10 03:05:53;;;;;;;22.10;8.25;;;;;;;;;;5079116;28;20048;-57
2022/11/10 03:08:18;;;;;;;20.92;7.57;;;;;;;;;;5074334;28;20024;-56
2022/11/10 03:10:43;;;;;;;13.82;6.15;;;;;;;;;;5079769;28;20047;-56
2022/11/10 03:13:09;;;;;;;21.17;8.38;;;;;;;;;;5076328;28;20544;-55
2022/11/10 03:15:34;;;;;;;17.70;7.90;;;;;;;;;;5081731;28;20752;-56
2022/11/10 03:18:01;;;;;;;16.98;6.80;;;;;;;;;;5084135;28;20011;-56
2022/11/10 03:20:26;;;;;;;11.63;6.20;;;;;;;;;;5086821;28;20024;-56
2022/11/10 03:22:52;;;;;;;23.17;7.90;;;;;;;;;;5073090;28;20043;-56
2022/11/10 03:25:17;;;;;;;18.38;7.32;;;;;;;;;;5082814;28;20529;-56
2022/11/10 03:27:42;;;;;;;16.10;8.25;;;;;;;;;;5088438;28;20092;-56
2022/11/10 03:30:08;;;;;;;28.45;8.50;;;;;;;;;;5083637;28;20028;-55
2022/11/10 03:32:33;;;;;;;20.50;8.77;;;;;;;;;;5079367;28;20122;-55
2022/11/10 03:34:58;;;;;;;21.15;8.07;;;;;;;;;;5090749;28;20020;-56
2022/11/10 03:37:23;;;;;;;19.00;8.32;;;;;;;;;;5081856;28;20630;-56
2022/11/10 03:39:48;;;;;;;20.55;9.65;;;;;;;;;;5091860;28;20501;-56
2022/11/10 03:42:14;;;;;;;22.58;8.68;;;;;;;;;;5073146;28;20437;-55
2022/11/10 03:44:39;;;;;;;21.10;7.97;;;;;;;;;;5072934;28;20108;-56
2022/11/10 03:47:04;;;;;;;16.63;7.03;;;;;;;;;;5079342;28;20059;-56
2022/11/10 03:49:29;;;;;;;14.57;7.50;;;;;;;;;;5093907;28;20035;-57
2022/11/10 03:51:55;;;;;;;18.25;7.72;;;;;;;;;;5076736;28;20331;-57
2022/11/10 03:54:20;;;;;;;17.80;7.32;;;;;;;;;;5076242;28;20673;-57
2022/11/10 03:56:45;;;;;;;31.52;8.98;;;;;;;;;;5084920;28;20014;-57
2022/11/10 03:59:11;;;;;;;22.08;9.15;;;;;;;;;;5075843;28;20471;-57
2022/11/10 04:01:36;;;;;;;29.92;8.10;;;;;;;;;;5087439;28;20034;-58
2022/11/10 04:04:01;;;;;;;16.70;8.55;;;;;;;;;;5086677;28;20023;-58
2022/11/10 04:09:10;;;;;;;17.65;7.30;;;;;;;;;;5077902;28;20039;-56
2022/11/10 04:17:03;;;;;;;19.30;6.95;;;;;;;;;;5084138;28;20508;-55
2022/11/10 04:19:29;;;;;;;19.10;7.65;;;;;;;;;;5112200;27;20028;-55
2022/11/10 04:21:54;;;;;;;20.90;8.25;;;;;;;;;;5079854;28;20076;-56
2022/11/10 04:24:19;;;;;;;17.10;7.57;;;;;;;;;;5077592;28;20075;-56
2022/11/10 04:26:46;;;;;;;20.73;7.70;;;;;;;;;;5082230;28;20022;-58
2022/11/10 04:29:12;;;;;;;16.88;7.60;;;;;;;;;;5110419;27;20024;-57
2022/11/10 04:31:38;;;;;;;15.65;7.05;;;;;;;;;;5075284;28;21094;-57
2022/11/10 04:34:07;;;;;;;15.23;7.90;;;;;;;;;;5079749;28;20029;-57
2022/11/10 04:36:32;;;;;;;20.05;7.60;;;;;;;;;;5077688;28;20180;-57
2022/11/10 04:38:58;;;;;;;19.63;7.20;;;;;;;;;;5079176;28;20055;-58
2022/11/10 04:41:23;;;;;;;17.35;7.68;;;;;;;;;;5075386;28;20346;-55
2022/11/10 04:43:52;;;;;;;19.10;7.95;;;;;;;;;;5078437;28;20012;-54
2022/11/10 04:46:19;;;;;;;15.48;6.28;;;;;;;;;;5078779;28;20084;-56
2022/11/10 04:48:44;;;;;;;13.10;5.18;;;;;;;;;;5083966;28;20020;-55
2022/11/10 04:51:09;;;;;;;15.18;7.10;;;;;;;;;;5070142;28;20034;-56
2022/11/10 04:53:34;;;;;;;19.38;7.47;;;;;;;;;;5112890;27;20173;-56
2022/11/10 04:56:00;;;;;;;22.02;7.75;;;;;;;;;;5070909;28;20110;-55
2022/11/10 04:58:25;;;;;;;19.55;6.70;;;;;;;;;;5075058;28;20024;-55
2022/11/10 05:00:50;;;;;;;17.35;7.22;;;;;;;;;;5077320;28;20020;-56
2022/11/10 05:03:15;;;;;;;20.13;6.70;;;;;;;;;;5076327;28;20020;-56
2022/11/10 05:05:41;;;;;;;15.07;6.93;;;;;;;;;;5105441;27;20131;-56
2022/11/10 05:08:06;;;;;;;17.45;7.32;;;;;;;;;;5076372;28;20463;-56
2022/11/10 05:10:32;;;;;;;16.90;6.47;;;;;;;;;;5086223;28;20038;-55
2022/11/10 05:12:57;;;;;;;12.77;6.13;;;;;;;;;;5071787;28;20036;-56
2022/11/10 05:15:23;;;;;;;15.45;6.18;;;;;;;;;;5080263;28;20043;-56
2022/11/10 05:17:50;;;;;;;21.50;7.57;;;;;;;;;;5081740;28;20012;-57
2022/11/10 05:20:16;;;;;;;15.60;7.20;;;;;;;;;;5073463;28;20019;-56
2022/11/10 05:23:36;;;;;;;16.25;7.47;;;;;;;;;;5105477;27;20032;-56
2022/11/10 05:25:33;;;;;;;20.02;7.25;;;;;;;;;;5084272;28;20040;-56
2022/11/10 05:27:58;;;;;;;17.30;7.15;;;;;;;;;;5079110;28;20028;-56
2022/11/10 05:30:24;;;;;;;14.32;7.22;;;;;;;;;;5085751;28;20022;-57
2022/11/10 05:32:49;;;;;;;24.45;6.30;;;;;;;;;;5081827;28;20027;-56
2022/11/10 05:35:14;;;;;;;22.75;7.03;;;;;;;;;;5075359;28;20012;-56
2022/11/10 05:37:40;;;;;;;19.08;6.38;;;;;;;;;;5076694;28;20050;-55
2022/11/10 05:40:05;;;;;;;15.02;6.53;;;;;;;;;;5079422;28;20078;-56
2022/11/10 05:42:31;;;;;;;18.33;6.70;;;;;;;;;;5076539;28;20020;-56
2022/11/10 05:44:56;;;;;;;14.55;6.30;;;;;;;;;;5072472;28;20024;-55
2022/11/10 05:47:21;;;;;;;16.88;6.13;;;;;;;;;;5085032;28;20433;-55
2022/11/10 05:49:46;;;;;;;16.67;6.45;;;;;;;;;;5088901;28;20034;-57
2022/11/10 05:52:12;;;;;;;17.25;6.82;;;;;;;;;;5082814;28;20032;-56
2022/11/10 05:54:37;;;;;;;17.70;6.63;;;;;;;;;;5086206;28;20111;-56
2022/11/10 05:57:02;;;;;;;19.27;6.25;;;;;;;;;;5083098;28;20047;-57
2022/11/10 05:59:27;;;;;;;12.15;5.60;;;;;;;;;;5082453;28;20055;-55
2022/11/10 06:01:53;;;;;;;14.95;6.28;;;;;;;;;;5078192;28;20072;-56
2022/11/10 06:04:18;;;;;;;16.73;5.68;;;;;;;;;;5081187;28;20099;-57
2022/11/10 06:06:43;;;;;;;16.88;5.93;;;;;;;;;;5089812;28;20051;-56
2022/11/10 06:09:08;;;;;;;12.65;5.40;;;;;;;;;;5084744;28;20062;-56
2022/11/10 06:11:33;;;;;;;12.07;5.72;;;;;;;;;;5080834;28;20098;-55
2022/11/10 06:13:59;;;;;;;16.45;6.30;;;;;;;;;;5091543;28;20027;-56
2022/11/10 06:16:25;;;;;;;18.25;5.85;;;;;;;;;;5072518;28;20446;-57
2022/11/10 06:18:50;;;;;;;14.60;5.70;;;;;;;;;;5072916;28;20360;-56
2022/11/10 06:21:15;;;;;;;16.88;6.05;;;;;;;;;;5081669;28;20024;-56
2022/11/10 06:23:40;;;;;;;14.77;5.78;;;;;;;;;;5083476;28;20104;-56
2022/11/10 06:26:06;;;;;;;21.17;6.85;;;;;;;;;;5068796;28;20017;-57
2022/11/10 06:28:31;;;;;;;15.98;7.15;;;;;;;;;;5080635;28;20129;-56
2022/11/10 06:30:57;;;;;;;19.67;6.30;;;;;;;;;;5071034;28;20332;-56
2022/11/10 06:33:23;;;;;;;15.55;6.00;;;;;;;;;;5083844;28;20044;-57
2022/11/10 06:35:48;;;;;;;16.20;6.50;;;;;;;;;;5088250;28;20081;-57
2022/11/10 06:38:13;;;;;;;12.27;6.25;;;;;;;;;;5080468;28;20490;-57
2022/11/10 06:40:38;;;;;;;21.67;6.65;;;;;;;;;;5096822;28;20064;-56
2022/11/10 06:43:04;;;;;;;21.00;6.35;;;;;;;;;;5078309;28;20029;-57
2022/11/10 06:45:29;;;;;;;22.02;6.93;;;;;;;;;;5092132;28;20016;-56
2022/11/10 06:47:58;;;;;;;24.35;7.18;;;;;;;;;;5072805;28;20089;-56
2022/11/10 06:50:23;;;;;;;14.13;7.07;;;;;;;;;;5080631;28;20027;-58
2022/11/10 06:52:55;;;;;;;22.25;6.90;;;;;;;;;;5085750;28;20040;-56
2022/11/10 06:55:20;;;;;;;17.63;7.28;;;;;;;;;;5085635;28;20107;-57
2022/11/10 06:57:45;;;;;;;14.93;6.53;;;;;;;;;;5084804;28;20110;-56
2022/11/10 07:00:11;;;;;;;15.07;6.60;;;;;;;;;;5088199;28;20457;-57
2022/11/10 07:02:36;;;;;;;23.20;6.90;;;;;;;;;;5075979;28;20028;-57
2022/11/10 07:05:01;;;;;;;19.00;6.95;;;;;;;;;;5075843;28;20036;-57
2022/11/10 07:07:27;;;;;;;26.02;6.70;;;;;;;;;;5078155;28;20024;-56
2022/11/10 07:09:52;;;;;;;23.50;6.97;;;;;;;;;;5077897;28;20074;-57
2022/11/10 07:12:18;;;;;;;12.98;6.53;;;;;;;;;;5077709;28;20047;-57
2022/11/10 07:14:43;;;;;;;17.33;6.18;;;;;;;;;;5081582;28;20020;-56
2022/11/10 07:17:09;;;;;;;13.90;5.72;;;;;;;;;;5085629;28;20020;-57
2022/11/10 07:19:34;;;;;;;13.70;5.53;;;;;;;;;;5113214;27;20009;-55
2022/11/10 07:21:59;;;;;;;15.07;5.63;;;;;;;;;;5077287;28;20572;-57
2022/11/10 07:24:25;;;;;;;16.15;6.28;;;;;;;;;;5075879;28;20491;-57
2022/11/10 07:26:50;;;;;;;20.55;5.93;;;;;;;;;;5080222;28;20029;-57
2022/11/10 07:29:15;;;;;;;20.73;6.00;;;;;;;;;;5079183;28;20024;-57
2022/11/10 07:31:44;;;;;;;15.00;6.07;;;;;;;;;;5088864;28;20594;-57
2022/11/10 07:34:09;;;;;;;10.98;5.78;;;;;;;;;;5090002;28;20393;-57
2022/11/10 07:36:35;;;;;;;15.88;5.70;;;;;;;;;;5081549;28;20032;-57
2022/11/10 07:39:00;;;;;;;12.07;4.82;;;;;;;;;;5107930;27;20023;-57
2022/11/10 07:41:25;;;;;;;15.27;4.53;;;;;;;;;;5076466;28;20028;-57
2022/11/10 07:43:51;;;;;;;11.48;4.45;;;;;;;;;;5079812;28;20020;-57
2022/11/10 07:46:16;;;;;;;13.63;4.35;;;;;;;;;;5079517;28;20476;-57
2022/11/10 07:48:41;;;;;;;12.73;4.20;;;;;;;;;;5083158;28;20473;-56
2022/11/10 07:51:06;;;;;;;11.90;3.97;;;;;;;;;;5076266;28;20430;-57
2022/11/10 07:53:32;;;;;;;13.43;3.90;;;;;;;;;;5104144;27;20056;-57
2022/11/10 07:55:57;;;;;;;16.73;4.50;;;;;;;;;;5076958;28;20024;-57
2022/11/10 07:58:22;;;;;;;16.00;4.30;;;;;;;;;;5084615;28;20024;-57
2022/11/10 08:00:47;;;;;;;10.73;3.60;;;;;;;;;;5073679;28;20032;-57
2022/11/10 08:03:14;;;;;;;13.27;3.58;;;;;;;;;;5072670;28;20443;-56
2022/11/10 08:05:39;;;;;;;15.88;4.10;;;;;;;;;;5076524;28;20126;-57
2022/11/10 08:08:04;;;;;;;13.95;3.33;;;;;;;;;;5083354;28;20107;-56
2022/11/10 08:10:30;;;;;;;11.10;3.83;;;;;;;;;;5082084;28;20379;-57
2022/11/10 08:12:56;;;;;;;8.70;3.25;;;;;;;;;;5071568;28;20322;-55
2022/11/10 08:15:21;;;;;;;11.13;3.22;;;;;;;;;;5079815;28;20020;-57
2022/11/10 08:17:46;;;;;;;14.73;4.20;;;;;;;;;;5072640;28;20127;-57
2022/11/10 08:20:11;;;;;;;9.43;3.30;;;;;;;;;;5088106;28;20382;-57
2022/11/10 08:22:37;;;;;;;11.40;3.50;;;;;;;;;;5078443;28;20553;-57
2022/11/10 08:25:02;;;;;;;13.13;2.90;;;;;;;;;;5090244;28;20016;-56
2022/11/10 08:27:28;;;;;;;11.15;2.88;;;;;;;;;;5086011;28;20024;-56
2022/11/10 08:29:53;;;;;;;9.52;3.00;;;;;;;;;;5088533;28;20507;-56
2022/11/10 08:32:18;;;;;;;6.85;2.90;;;;;;;;;;5077235;28;20410;-56
2022/11/10 08:34:43;;;;;;;9.90;2.90;;;;;;;;;;5087135;28;20349;-57
2022/11/10 08:37:09;;;;;;;13.65;3.83;;;;;;;;;;5078217;28;20032;-57
2022/11/10 08:39:34;;;;;;;11.57;3.20;;;;;;;;;;5077505;28;20081;-57
2022/11/10 08:41:59;;;;;;;10.77;2.90;;;;;;;;;;5078482;27;20108;-57
2022/11/10 08:44:25;;;;;;;8.80;2.88;;;;;;;;;;5073907;28;20136;-56
2022/11/10 08:46:50;;;;;;;8.10;2.70;;;;;;;;;;5087630;28;20020;-56
2022/11/10 08:49:15;;;;;;;16.85;3.88;;;;;;;;;;5077188;28;20103;-56
2022/11/10 08:51:40;;;;;;;9.00;2.85;;;;;;;;;;5072405;28;20066;-57
2022/11/10 08:54:06;;;;;;;10.13;3.30;;;;;;;;;;5080687;28;20031;-56
2022/11/10 08:56:31;;;;;;;9.85;2.97;;;;;;;;;;5075149;28;20028;-57
2022/11/10 08:58:56;;;;;;;8.15;2.75;;;;;;;;;;5086567;28;20027;-57
2022/11/10 09:01:21;;;;;;;7.47;2.78;;;;;;;;;;5083644;28;20027;-56
2022/11/10 09:03:46;;;;;;;9.60;3.00;;;;;;;;;;5086063;28;20401;-56
2022/11/10 09:06:12;;;;;;;8.68;2.80;;;;;;;;;;5082386;28;20055;-56
2022/11/10 09:08:37;;;;;;;7.10;2.90;;;;;;;;;;5111999;27;20024;-56
2022/11/10 09:11:05;;;;;;;12.77;3.47;;;;;;;;;;5073012;28;20037;-57
2022/11/10 09:13:31;;;;;;;5.70;2.35;;;;;;;;;;5078557;28;20223;-56
2022/11/10 09:15:59;;;;;;;8.00;2.92;;;;;;;;;;5069372;28;20128;-56
2022/11/10 09:18:24;;;;;;;7.63;3.00;;;;;;;;;;5078662;28;20081;-57
2022/11/10 09:20:50;;;;;;;9.27;2.90;;;;;;;;;;5080239;28;20371;-56
2022/11/10 09:23:16;;;;;;;12.90;3.40;;;;;;;;;;5080095;28;20648;-56
2022/11/10 09:25:41;;;;;;;8.32;3.25;;;;;;;;;;5077055;28;20023;-57
2022/11/10 09:28:10;;;;;;;8.63;3.00;;;;;;;;;;5065469;28;20020;-55
2022/11/10 09:30:36;;;;;;;11.48;3.88;;;;;;;;;;5080749;28;20158;-55
2022/11/10 09:33:01;;;;;;;9.27;3.30;;;;;;;;;;5083308;28;21019;-56
2022/11/10 09:35:26;;;;;;;9.52;3.22;;;;;;;;;;5077591;28;20426;-56
2022/11/10 09:37:51;;;;;;;9.57;3.70;;;;;;;;;;5079201;28;20087;-56
2022/11/10 09:40:18;;;;;;;10.07;3.60;;;;;;;;;;5087490;28;20036;-55
2022/11/10 09:42:43;;;;;;;12.10;3.88;;;;;;;;;;5066232;28;20169;-56
2022/11/10 09:45:09;;;;;;;9.88;3.15;;;;;;;;;;5088004;28;20049;-56
2022/11/10 09:47:39;;;;;;;7.63;3.30;;;;;;;;;;5087454;28;20435;-56
2022/11/10 09:50:05;;;;;;;12.68;4.00;;;;;;;;;;5083043;28;20023;-56
2022/11/10 09:52:31;;;;;;;9.63;3.17;;;;;;;;;;5088635;28;20043;-57
2022/11/10 09:54:57;;;;;;;12.63;4.30;;;;;;;;;;5079683;28;20016;-57
2022/11/10 09:57:23;;;;;;;10.43;3.85;;;;;;;;;;5107342;27;20028;-56
2022/11/10 09:59:48;;;;;;;10.60;3.58;;;;;;;;;;5082281;28;20020;-57
2022/11/10 10:02:17;;;;;;;13.93;4.38;;;;;;;;;;5085078;28;20481;-57
2022/11/10 10:05:00;;;;;;;13.55;4.80;;;;;;;;;;5095724;28;20556;-56
2022/11/10 10:07:36;;;;;;;8.65;3.85;;;;;;;;;;5087313;28;20350;-57
2022/11/10 10:10:15;;;;;;;9.52;4.05;;;;;;;;;;5084395;28;20019;-56
2022/11/10 10:12:59;;;;;;;6.68;3.33;;;;;;;;;;5081902;28;20054;-56
2022/11/10 10:15:46;;;;;;;11.50;3.78;;;;;;;;;;5080871;28;20060;-56
2022/11/10 10:18:21;;;;;;;11.10;4.07;;;;;;;;;;5077129;28;20115;-56
2022/11/10 10:21:05;;;;;;;8.23;3.03;;;;;;;;;;5075595;28;20011;-56
2022/11/10 10:23:34;;;;;;;10.52;4.03;;;;;;;;;;5086102;28;20093;-53
2022/11/10 10:25:59;;;;;;;11.40;4.00;;;;;;;;;;5082399;28;20020;-56
2022/11/10 10:28:26;;;;;;;10.50;3.83;;;;;;;;;;5078353;28;20475;-56
2022/11/10 10:30:51;;;;;;;10.20;3.67;;;;;;;;;;5071565;28;20117;-56
2022/11/10 10:33:17;;;;;;;9.38;3.28;;;;;;;;;;5090323;28;20032;-56
2022/11/10 10:35:42;;;;;;;10.73;4.15;;;;;;;;;;5079841;28;20076;-56
2022/11/10 10:38:26;;;;;;;8.48;3.38;;;;;;;;;;5071424;28;20332;-56
2022/11/10 10:40:52;;;;;;;10.25;3.60;;;;;;;;;;5079876;28;20037;-56
2022/11/10 10:43:17;;;;;;;11.50;3.58;;;;;;;;;;5085631;28;20028;-56
2022/11/10 10:45:42;;;;;;;11.98;3.92;;;;;;;;;;5087199;28;20055;-55
2022/11/10 10:48:37;;;;;;;9.55;3.70;;;;;;;;;;5079095;28;20485;-56
2022/11/10 10:51:02;;;;;;;11.23;4.05;;;;;;;;;;5080682;28;20289;-55
2022/11/10 10:53:27;;;;;;;10.23;4.22;;;;;;;;;;5082834;28;20138;-56
2022/11/10 10:56:00;;;;;;;8.23;3.88;;;;;;;;;;5091021;28;20020;-56
2022/11/10 10:58:26;;;;;;;10.80;3.70;;;;;;;;;;5077666;28;20498;-56
2022/11/10 11:00:55;;;;;;;8.30;3.30;;;;;;;;;;5082399;28;20027;-56
2022/11/10 11:03:39;;;;;;;8.93;3.67;;;;;;;;;;5078596;28;20444;-56
2022/11/10 11:06:13;;;;;;;7.40;3.47;;;;;;;;;;5081399;28;20051;-56
2022/11/10 11:08:39;;;;;;;10.77;4.00;;;;;;;;;;5084644;28;20371;-55
2022/11/10 11:11:07;;;;;;;9.52;3.70;;;;;;;;;;5079532;28;20131;-56
2022/11/10 11:13:33;;;;;;;7.00;3.35;;;;;;;;;;5087278;28;20334;-55
2022/11/10 11:15:59;;;;;;;15.10;4.35;;;;;;;;;;5080008;28;20351;-56
2022/11/10 11:18:24;;;;;;;11.43;4.32;;;;;;;;;;5084474;28;20516;-55
2022/11/10 11:20:52;;;;;;;9.40;4.40;;;;;;;;;;5076374;28;20023;-57
2022/11/10 11:23:29;;;;;;;11.25;4.38;;;;;;;;;;5082895;28;20474;-56
2022/11/10 11:25:56;;;;;;;8.77;4.25;;;;;;;;;;5084595;28;20126;-55
2022/11/10 11:28:40;;;;;;;10.52;4.28;;;;;;;;;;5085090;28;20176;-56
2022/11/10 11:31:09;;;;;;;12.05;4.28;;;;;;;;;;5070149;28;20028;-56
2022/11/10 11:33:40;;;;;;;9.40;4.45;;;;;;;;;;5078765;28;20254;-56
2022/11/10 11:36:08;;;;;;;9.60;4.30;;;;;;;;;;5079095;28;20024;-57
2022/11/10 11:38:40;;;;;;;10.55;3.95;;;;;;;;;;5082989;28;20032;-57
2022/11/10 11:41:20;;;;;;;7.60;3.80;;;;;;;;;;5074055;28;20028;-57
2022/11/10 11:43:53;;;;;;;11.07;3.80;;;;;;;;;;5082316;28;20036;-57
2022/11/10 11:46:18;;;;;;;8.45;3.38;;;;;;;;;;5071579;28;20032;-56
2022/11/10 11:48:49;;;;;;;8.80;3.63;;;;;;;;;;5074878;28;20031;-57
2022/11/10 11:51:14;;;;;;;10.30;3.75;;;;;;;;;;5079691;28;20059;-57
2022/11/10 11:53:51;;;;;;;18.83;4.53;;;;;;;;;;5083388;28;20556;-56
2022/11/10 11:56:21;;;;;;;10.07;3.78;;;;;;;;;;5079477;28;20056;-56
2022/11/10 11:58:59;;;;;;;12.73;4.05;;;;;;;;;;5070056;28;20077;-56
2022/11/10 12:01:33;;;;;;;9.90;4.70;;;;;;;;;;5078902;28;20358;-56
2022/11/10 12:04:13;;;;;;;11.25;4.63;;;;;;;;;;5076471;28;20379;-56
2022/11/10 12:06:40;;;;;;;14.00;4.20;;;;;;;;;;5108170;27;20096;-56
2022/11/10 12:09:08;;;;;;;12.43;4.10;;;;;;;;;;5081871;28;20049;-57
2022/11/10 12:11:54;;;;;;;10.05;3.78;;;;;;;;;;5079049;28;20481;-58
2022/11/10 12:14:22;;;;;;;11.57;5.22;;;;;;;;;;5049837;28;20552;-56
2022/11/10 12:16:59;;;;;;;11.95;3.80;;;;;;;;;;5091800;28;20070;-56
2022/11/10 12:19:57;;;;;;;10.48;3.75;;;;;;;;;;5076146;28;20189;-56
2022/11/10 12:22:34;;;;;;;13.45;3.28;;;;;;;;;;5069211;28;20330;-55
2022/11/10 12:25:00;;;;;;;9.95;3.55;;;;;;;;;;5075624;28;20577;-55
2022/11/10 12:27:27;;;;;;;10.85;3.78;;;;;;;;;;5078218;28;20197;-55
2022/11/10 12:29:53;;;;;;;7.05;3.20;;;;;;;;;;5086461;28;20016;-55
2022/11/10 12:32:31;;;;;;;13.10;3.58;;;;;;;;;;5072038;28;20040;-57
2022/11/10 12:35:05;;;;;;;11.00;3.30;;;;;;;;;;5075485;28;20434;-56
2022/11/10 12:37:44;;;;;;;9.15;3.67;;;;;;;;;;5081680;28;20023;-56
2022/11/10 12:40:15;;;;;;;8.73;3.50;;;;;;;;;;5091984;28;20012;-55
2022/11/10 12:42:41;;;;;;;18.42;4.18;;;;;;;;;;5086815;28;20032;-56
2022/11/10 12:45:07;;;;;;;15.48;4.05;;;;;;;;;;5082800;28;20024;-56
2022/11/10 12:47:40;;;;;;;10.15;3.67;;;;;;;;;;5076596;28;20059;-56
2022/11/10 12:50:16;;;;;;;7.95;3.25;;;;;;;;;;5058868;28;20953;-56
2022/11/10 12:53:04;;;;;;;8.18;3.53;;;;;;;;;;5115047;27;20090;-57
2022/11/10 12:55:52;;;;;;;10.30;4.20;;;;;;;;;;5076669;27;20033;-57
2022/11/10 12:58:18;;;;;;;11.60;4.03;;;;;;;;;;5071415;28;20059;-57
2022/11/10 13:00:54;;;;;;;12.82;4.25;;;;;;;;;;5076760;28;20776;-57
2022/11/10 13:03:29;;;;;;;12.88;4.35;;;;;;;;;;5098429;27;20354;-56
2022/11/10 13:05:55;;;;;;;15.13;4.00;;;;;;;;;;5078417;28;20530;-55
2022/11/10 13:08:21;;;;;;;10.20;4.45;;;;;;;;;;5082470;28;20016;-55
2022/11/10 13:10:53;;;;;;;13.95;3.55;;;;;;;;;;5076137;28;20421;-55
2022/11/10 13:13:18;;;;;;;9.88;3.85;;;;;;;;;;5105472;27;20032;-57
2022/11/10 13:15:48;;;;;;;10.88;4.15;;;;;;;;;;5081627;28;20429;-55
2022/11/10 13:18:33;;;;;;;12.00;3.38;;;;;;;;;;5084373;28;20132;-55
2022/11/10 13:20:58;;;;;;;13.85;4.15;;;;;;;;;;5071761;28;20024;-57
2022/11/10 13:23:27;;;;;;;8.48;3.53;;;;;;;;;;5074096;28;20020;-55
2022/11/10 13:25:54;;;;;;;7.80;3.42;;;;;;;;;;5084688;28;20031;-55
2022/11/10 13:28:39;;;;;;;10.77;3.28;;;;;;;;;;5079362;28;20477;-56
2022/11/10 13:31:23;;;;;;;9.52;3.15;;;;;;;;;;5045330;28;20304;-56
2022/11/10 13:34:06;;;;;;;9.18;3.05;;;;;;;;;;5066018;28;20040;-56
2022/11/10 13:36:35;;;;;;;11.82;3.50;;;;;;;;;;5077625;28;20568;-55
2022/11/10 13:39:14;;;;;;;11.25;4.03;;;;;;;;;;5074559;28;20031;-55
2022/11/10 13:41:43;;;;;;;8.90;3.22;;;;;;;;;;5082333;28;20039;-59
2022/11/10 13:44:27;;;;;;;11.82;4.15;;;;;;;;;;5075521;28;20494;-56
2022/11/10 13:46:55;;;;;;;14.10;3.90;;;;;;;;;;5064761;28;20076;-57
2022/11/10 13:49:20;;;;;;;10.38;3.42;;;;;;;;;;5078134;28;20121;-55
2022/11/10 13:52:08;;;;;;;16.30;4.53;;;;;;;;;;5072060;28;20031;-55
2022/11/10 13:54:37;;;;;;;10.13;3.85;;;;;;;;;;5072729;28;20517;-56
2022/11/10 13:57:04;;;;;;;12.13;4.03;;;;;;;;;;5089115;28;20019;-55
2022/11/10 13:59:30;;;;;;;9.50;3.80;;;;;;;;;;5074029;28;20113;-56
2022/11/10 14:02:13;;;;;;;12.18;3.67;;;;;;;;;;5069590;28;20471;-56
2022/11/10 14:04:42;;;;;;;12.68;3.47;;;;;;;;;;5073451;28;20036;-56
2022/11/10 14:07:17;;;;;;;13.15;4.07;;;;;;;;;;5076085;28;20039;-56
2022/11/10 14:09:46;;;;;;;10.00;3.53;;;;;;;;;;5076845;28;20016;-56
2022/11/10 14:12:32;;;;;;;8.13;3.50;;;;;;;;;;5075697;28;20040;-55
2022/11/10 14:15:16;;;;;;;9.98;3.95;;;;;;;;;;5067146;28;20028;-57
2022/11/10 14:17:43;;;;;;;9.45;3.42;;;;;;;;;;5074159;28;20035;-56
2022/11/10 14:20:20;;;;;;;12.25;4.07;;;;;;;;;;5068921;28;20294;-57
2022/11/10 14:22:48;;;;;;;16.38;4.55;;;;;;;;;;5074437;28;20016;-56
2022/11/10 14:25:18;;;;;;;15.77;4.38;;;;;;;;;;5076294;28;20031;-57
2022/11/10 14:27:43;;;;;;;;;;;;;;;;;;5075988;28;20096;-55
2022/11/10 14:30:24;;;;;;;12.50;4.00;;;;;;;;;;5071134;28;19949;-56
2022/11/10 14:32:56;;;;;;;10.43;3.50;;;;;;;;;;5084632;28;20473;-56
2022/11/10 14:35:24;;;;;;;10.45;3.67;;;;;;;;;;5079292;28;20059;-59
2022/11/10 14:37:50;;;;;;;15.20;4.40;;;;;;;;;;5094900;28;20043;-57
2022/11/10 14:40:16;;;;;;;8.57;3.58;;;;;;;;;;5084077;28;20055;-56
2022/11/10 14:42:41;;;;;;;12.00;4.07;;;;;;;;;;5077029;28;20034;-56
2022/11/10 14:45:20;;;;;;;11.20;3.55;;;;;;;;;;5069970;28;20063;-57
2022/11/10 14:47:55;;;;;;;11.23;3.92;;;;;;;;;;5111565;27;20095;-58